Time;durP1;ratioP1;P1;durP2;ratioP2;P2;SDS_P1;SDS_P2;PMS_P1;PMS_P2;Temp;Humidity;BMP_temperature;BMP_pressure;BME280_temperature;BME280_humidity;BME280_pressure;Samples;Min_cycle;Max_cycle;Signal;HPM_P1;HPM_P2
2021/10/05 00:00:59;;;;;;;12.40;1.90;;;13.70;99.90;;;;;;6200620;23;20029;-83
2021/10/05 00:03:33;;;;;;;8.10;1.90;;;13.70;99.90;;;;;;6201164;23;20024;-84
2021/10/05 00:06:18;;;;;;;10.35;3.42;;;13.70;99.90;;;;;;6226998;23;20016;-81
2021/10/05 00:08:55;;;;;;;9.73;2.70;;;13.70;99.90;;;;;;6175804;23;20027;-84
2021/10/05 00:12:10;;;;;;;15.95;4.45;;;13.70;99.90;;;;;;6188666;23;20017;-82
2021/10/05 00:15:02;;;;;;;13.23;2.25;;;13.70;99.90;;;;;;6180647;23;20031;-81
2021/10/05 00:17:31;;;;;;;10.20;2.80;;;13.80;99.90;;;;;;6212677;23;20023;-81
2021/10/05 00:20:16;;;;;;;;;;;;;;;;;;;;;
2021/10/05 00:23:38;;;;;;;;;;;;;;;;;;;;;
2021/10/05 00:26:59;;;;;;;8.02;2.42;;;14.90;99.90;;;;;;6190994;23;20024;-83
2021/10/05 00:30:06;;;;;;;8.30;2.10;;;13.90;99.90;;;;;;6205725;23;20012;-82
2021/10/05 00:35:58;;;;;;;12.63;2.30;;;13.90;99.90;;;;;;6224498;23;20017;-83
2021/10/05 00:38:58;;;;;;;17.65;3.55;;;14.00;99.90;;;;;;6235562;23;20022;-83
2021/10/05 00:41:43;;;;;;;8.07;2.22;;;14.70;99.90;;;;;;6227523;23;20020;-82
2021/10/05 00:44:17;;;;;;;13.73;2.75;;;14.20;99.90;;;;;;6227738;23;20023;-81
2021/10/05 00:47:16;;;;;;;8.75;2.05;;;14.20;99.90;;;;;;6237515;23;20035;-83
2021/10/05 00:50:18;;;;;;;23.23;2.97;;;14.10;99.90;;;;;;6219690;23;20027;-83
2021/10/05 00:53:19;;;;;;;16.65;2.72;;;14.10;99.90;;;;;;6178610;23;20345;-83
2021/10/05 00:55:48;;;;;;;12.98;2.63;;;14.10;99.90;;;;;;6201747;23;20013;-81
2021/10/05 00:58:48;;;;;;;;;;;;;;;;;;;;;
2021/10/05 01:02:23;;;;;;;16.00;2.50;;;13.80;99.90;;;;;;6163848;23;20021;-82
2021/10/05 01:05:47;;;;;;;15.30;4.03;;;14.20;99.90;;;;;;6063957;23;20027;-82
2021/10/05 01:08:39;;;;;;;12.50;3.45;;;14.30;99.90;;;;;;6062993;23;20018;-81
2021/10/05 01:11:08;;;;;;;20.05;2.75;;;14.30;99.90;;;;;;6029576;23;20034;-81
2021/10/05 01:14:27;;;;;;;14.93;2.50;;;14.40;99.90;;;;;;6044344;23;20022;-85
2021/10/05 01:17:17;;;;;;;20.33;3.25;;;14.40;99.90;;;;;;6055202;23;20030;-83
2021/10/05 01:19:51;;;;;;;14.30;2.60;;;14.40;99.90;;;;;;6078661;23;20030;-82
2021/10/05 01:22:54;;;;;;;16.08;5.95;;;14.30;99.90;;;;;;6065668;23;20044;-83
2021/10/05 01:25:26;;;;;;;15.68;4.22;;;14.30;99.90;;;;;;6068851;23;20034;-82
2021/10/05 01:28:04;;;;;;;13.90;2.60;;;14.40;99.90;;;;;;6141777;23;20017;-81
2021/10/05 01:30:34;;;;;;;13.25;2.55;;;14.40;99.90;;;;;;6170128;23;20132;-81
2021/10/05 01:33:08;;;;;;;17.75;3.83;;;14.30;99.90;;;;;;6145406;23;20031;-81
2021/10/05 01:35:46;;;;;;;15.10;2.33;;;13.00;99.90;;;;;;6170180;23;20021;-80
2021/10/05 01:38:16;;;;;;;12.55;2.38;;;14.20;99.90;;;;;;6144841;23;20021;-82
2021/10/05 01:40:49;;;;;;;18.90;2.83;;;14.60;99.90;;;;;;6196802;23;20028;-80
2021/10/05 01:43:21;;;;;;;9.80;2.30;;;14.30;99.90;;;;;;6170922;23;20020;-81
2021/10/05 01:45:52;;;;;;;13.43;2.85;;;14.20;99.90;;;;;;6173264;23;20315;-81
2021/10/05 01:48:21;;;;;;;;;;;12.90;99.90;;;;;;6149251;23;20021;-83
2021/10/05 01:50:49;;;;;;;16.33;2.97;;;14.20;99.90;;;;;;6182677;23;19935;-82
2021/10/05 01:53:17;;;;;;;11.07;2.28;;;14.10;99.90;;;;;;6172812;23;20020;-81
2021/10/05 01:55:45;;;;;;;14.77;3.88;;;14.20;99.90;;;;;;6147810;23;20025;-83
2021/10/05 01:58:16;;;;;;;12.40;2.97;;;14.20;99.90;;;;;;6173733;23;20020;-81
2021/10/05 02:00:45;;;;;;;12.45;2.78;;;14.10;99.90;;;;;;6171927;23;20017;-82
2021/10/05 02:03:16;;;;;;;;;;;14.10;99.90;;;;;;6172469;23;20025;-84
2021/10/05 02:05:44;;;;;;;8.90;2.33;;;14.10;99.90;;;;;;6182952;23;19922;-80
2021/10/05 02:08:16;;;;;;;18.65;4.70;;;14.10;99.90;;;;;;6172836;23;20039;-82
2021/10/05 02:10:45;;;;;;;11.63;3.17;;;14.00;99.90;;;;;;6171007;23;20027;-82
2021/10/05 02:13:15;;;;;;;15.70;3.20;;;14.00;99.90;;;;;;6147213;23;20027;-82
2021/10/05 02:15:47;;;;;;;11.45;3.13;;;14.00;99.90;;;;;;6171463;23;20027;-79
2021/10/05 02:18:15;;;;;;;16.15;3.15;;;14.00;99.90;;;;;;6147974;23;20031;-84
2021/10/05 02:20:44;;;;;;;14.55;2.90;;;14.00;99.90;;;;;;6148852;23;20013;-80
2021/10/05 02:23:12;;;;;;;14.85;4.13;;;14.00;99.90;;;;;;6148538;23;20577;-80
2021/10/05 02:25:41;;;;;;;22.80;4.00;;;14.20;99.90;;;;;;6158854;23;20013;-81
2021/10/05 02:28:10;;;;;;;8.18;2.78;;;14.00;99.90;;;;;;6170633;23;20461;-78
2021/10/05 02:30:38;;;;;;;15.65;3.45;;;14.00;99.90;;;;;;6171082;23;20021;-80
2021/10/05 02:33:07;;;;;;;12.32;3.67;;;14.00;99.90;;;;;;6209178;23;20031;-79
2021/10/05 02:35:35;;;;;;;17.65;4.70;;;14.00;99.90;;;;;;6146556;23;20024;-79
2021/10/05 02:38:03;;;;;;;12.85;3.45;;;14.00;99.90;;;;;;6199173;23;20009;-78
2021/10/05 02:40:32;;;;;;;20.60;5.32;;;14.00;99.90;;;;;;6170730;23;20021;-77
2021/10/05 02:42:59;;;;;;;9.60;2.58;;;14.00;99.90;;;;;;6182130;23;20013;-79
2021/10/05 02:45:28;;;;;;;10.15;3.80;;;14.00;99.90;;;;;;6208540;23;20009;-82
2021/10/05 02:47:56;;;;;;;8.15;2.40;;;14.00;99.90;;;;;;6199651;23;20013;-79
2021/10/05 02:50:25;;;;;;;18.83;3.47;;;14.00;99.90;;;;;;6158873;23;20021;-79
2021/10/05 02:52:53;;;;;;;11.10;3.55;;;14.00;99.90;;;;;;6208152;23;20023;-80
2021/10/05 02:55:21;;;;;;;15.18;4.15;;;14.00;99.90;;;;;;6120287;23;20021;-77
2021/10/05 02:57:49;;;;;;;6.38;1.75;;;14.00;99.90;;;;;;6198903;23;20024;-80
2021/10/05 03:00:18;;;;;;;6.43;1.75;;;14.00;99.90;;;;;;6157183;23;20009;-77
2021/10/05 03:02:46;;;;;;;7.60;1.83;;;14.00;99.90;;;;;;6200335;23;20017;-80
2021/10/05 03:05:17;;;;;;;11.45;4.10;;;14.00;99.90;;;;;;6146850;23;20039;-81
2021/10/05 03:07:46;;;;;;;;;;;14.00;99.90;;;;;;6172565;23;20023;-83
2021/10/05 03:10:14;;;;;;;5.20;1.70;;;14.00;99.90;;;;;;6181760;23;20270;-80
2021/10/05 03:12:42;;;;;;;12.75;2.58;;;14.70;99.90;;;;;;6174901;23;20019;-82
2021/10/05 03:15:10;;;;;;;12.20;2.28;;;14.00;99.90;;;;;;6200294;23;20024;-81
2021/10/05 03:17:39;;;;;;;6.20;1.58;;;14.00;99.90;;;;;;6121971;23;20025;-81
2021/10/05 03:20:08;;;;;;;7.13;2.25;;;14.00;99.90;;;;;;6197373;23;20036;-80
2021/10/05 03:22:37;;;;;;;7.88;2.30;;;14.00;99.90;;;;;;6173080;23;20017;-79
2021/10/05 03:25:05;;;;;;;4.65;1.65;;;14.00;99.90;;;;;;6123785;23;20337;-83
2021/10/05 03:27:35;;;;;;;7.40;1.45;;;14.10;99.90;;;;;;6183410;23;20014;-79
2021/10/05 03:30:07;;;;;;;10.35;3.20;;;14.00;99.90;;;;;;6147615;23;20031;-81
2021/10/05 03:32:37;;;;;;;10.40;1.65;;;14.10;99.90;;;;;;6170146;23;20545;-81
2021/10/05 03:35:08;;;;;;;11.18;2.72;;;14.10;99.90;;;;;;6172882;23;20021;-82
2021/10/05 03:37:46;;;;;;;7.40;1.33;;;14.60;99.90;;;;;;6172085;23;20027;-81
2021/10/05 03:40:18;;;;;;;3.47;1.60;;;14.00;99.90;;;;;;6148731;23;20016;-81
2021/10/05 03:42:49;;;;;;;2.38;1.30;;;14.00;99.90;;;;;;6198179;23;20029;-82
2021/10/05 03:45:18;;;;;;;5.07;1.40;;;14.10;99.90;;;;;;6158974;23;20013;-82
2021/10/05 03:47:48;;;;;;;9.82;1.70;;;14.20;99.90;;;;;;6148884;23;20021;-80
2021/10/05 03:50:18;;;;;;;3.00;1.08;;;14.10;99.90;;;;;;6182512;23;20023;-79
2021/10/05 03:52:48;;;;;;;8.73;1.33;;;14.10;99.90;;;;;;6182104;23;20350;-78
2021/10/05 03:55:16;;;;;;;22.83;3.58;;;14.10;99.90;;;;;;6200962;23;20021;-85
2021/10/05 03:57:44;;;;;;;6.32;1.23;;;14.00;99.90;;;;;;6200879;23;20035;-82
2021/10/05 04:00:12;;;;;;;1.25;0.80;;;14.00;99.90;;;;;;6210349;23;20021;-80
2021/10/05 04:02:42;;;;;;;3.00;1.00;;;14.00;99.90;;;;;;6209589;23;20023;-79
2021/10/05 04:05:10;;;;;;;4.63;1.00;;;14.00;99.90;;;;;;6147293;23;20043;-79
2021/10/05 04:07:41;;;;;;;5.90;0.95;;;13.90;99.90;;;;;;6171154;23;20028;-79
2021/10/05 04:10:09;;;;;;;1.20;0.55;;;13.80;99.90;;;;;;6174271;23;20024;-80
2021/10/05 04:12:37;;;;;;;1.90;1.15;;;13.80;99.90;;;;;;6174592;23;20013;-79
2021/10/05 04:15:06;;;;;;;2.45;1.05;;;13.70;99.90;;;;;;6173359;23;20010;-80
2021/10/05 04:17:35;;;;;;;2.45;0.77;;;13.60;99.90;;;;;;6149347;23;20562;-80
2021/10/05 04:20:04;;;;;;;3.63;1.10;;;13.40;99.90;;;;;;6200226;23;20023;-80
2021/10/05 04:22:33;;;;;;;10.85;1.17;;;13.60;99.90;;;;;;6146624;23;20329;-79
2021/10/05 04:25:01;;;;;;;3.70;1.10;;;13.40;99.90;;;;;;6198617;23;20027;-79
2021/10/05 04:27:29;;;;;;;6.25;1.35;;;13.40;99.90;;;;;;6175369;23;20032;-83
2021/10/05 04:29:57;;;;;;;16.55;1.85;;;13.30;99.90;;;;;;6208670;23;20021;-78
2021/10/05 04:32:25;;;;;;;3.00;1.02;;;13.20;99.90;;;;;;6146895;23;20036;-79
2021/10/05 04:34:54;;;;;;;7.38;1.30;;;13.20;99.90;;;;;;6207837;23;20009;-80
2021/10/05 04:37:24;;;;;;;5.65;1.42;;;13.20;99.90;;;;;;6171066;23;20021;-79
2021/10/05 04:39:54;;;;;;;6.10;1.83;;;13.20;99.90;;;;;;6182237;23;20017;-79
2021/10/05 04:42:24;;;;;;;3.65;1.23;;;13.20;99.90;;;;;;6150547;23;20073;-79
2021/10/05 04:44:53;;;;;;;4.57;1.35;;;13.20;99.90;;;;;;6171546;23;20021;-78
2021/10/05 04:47:21;;;;;;;6.68;1.15;;;12.60;99.90;;;;;;6147607;23;20029;-79
2021/10/05 04:49:54;;;;;;;5.03;1.38;;;13.10;99.90;;;;;;6168904;23;20025;-80
2021/10/05 04:52:23;;;;;;;2.78;1.05;;;13.20;99.90;;;;;;6198985;23;20009;-79
2021/10/05 04:54:53;;;;;;;6.35;1.40;;;13.10;99.90;;;;;;6173241;23;20017;-83
2021/10/05 04:57:21;;;;;;;4.05;1.88;;;13.10;99.90;;;;;;6170819;23;20021;-81
2021/10/05 04:59:49;;;;;;;6.88;1.13;;;13.10;99.90;;;;;;6145696;23;20043;-84
2021/10/05 05:02:18;;;;;;;7.80;3.42;;;13.00;99.90;;;;;;6146147;23;20017;-83
2021/10/05 05:04:55;;;;;;;5.63;1.20;;;13.00;99.90;;;;;;6170500;23;20021;-81
2021/10/05 05:07:24;;;;;;;5.75;2.22;;;13.00;99.90;;;;;;6170431;23;20029;-80
2021/10/05 05:10:07;;;;;;;19.13;2.72;;;12.60;99.90;;;;;;6168171;23;20025;-81
2021/10/05 05:12:44;;;;;;;6.32;1.30;;;12.90;99.90;;;;;;6144098;23;20031;-80
2021/10/05 05:15:13;;;;;;;3.13;1.42;;;12.90;99.90;;;;;;6143731;23;20021;-81
2021/10/05 05:17:50;;;;;;;4.70;1.33;;;12.90;99.90;;;;;;6205761;23;20021;-80
2021/10/05 05:20:22;;;;;;;2.22;1.30;;;12.90;99.90;;;;;;6197328;23;20013;-80
2021/10/05 05:22:54;;;;;;;4.35;1.77;;;12.90;99.90;;;;;;6167785;23;20032;-80
2021/10/05 05:25:22;;;;;;;3.70;2.50;;;12.90;99.90;;;;;;6179133;23;20021;-80
2021/10/05 05:27:51;;;;;;;17.13;2.95;;;12.90;99.90;;;;;;6179855;23;20017;-82
2021/10/05 05:30:19;;;;;;;8.73;1.25;;;12.90;99.90;;;;;;6168768;23;20027;-80
2021/10/05 05:32:47;;;;;;;4.22;1.52;;;12.90;99.90;;;;;;6143115;23;20021;-79
2021/10/05 05:35:16;;;;;;;5.97;1.23;;;12.90;99.90;;;;;;6178030;23;20122;-81
2021/10/05 05:37:45;;;;;;;7.30;2.10;;;12.90;99.90;;;;;;6154268;23;20457;-81
2021/10/05 05:40:13;;;;;;;17.38;3.05;;;12.70;99.90;;;;;;6204089;23;20023;-80
2021/10/05 05:42:44;;;;;;;5.03;1.63;;;12.80;99.90;;;;;;6156864;23;20020;-81
2021/10/05 05:45:35;;;;;;;7.35;1.50;;;12.80;99.90;;;;;;6194006;23;20025;-83
2021/10/05 05:48:05;;;;;;;4.63;1.27;;;12.80;99.90;;;;;;6143679;23;20062;-81
2021/10/05 05:50:38;;;;;;;3.97;1.70;;;12.80;99.90;;;;;;6198230;23;20019;-80
2021/10/05 05:53:08;;;;;;;4.97;1.55;;;12.80;99.90;;;;;;6194464;23;20025;-79
2021/10/05 05:55:40;;;;;;;6.03;1.55;;;12.80;99.90;;;;;;6144589;23;20021;-82
2021/10/05 05:58:18;;;;;;;5.97;1.73;;;12.80;99.90;;;;;;6168116;23;20025;-80
2021/10/05 06:00:47;;;;;;;3.97;1.58;;;12.70;99.90;;;;;;6206167;23;20058;-81
2021/10/05 06:03:15;;;;;;;9.07;2.33;;;12.70;99.90;;;;;;6205818;23;20021;-84
2021/10/05 06:05:50;;;;;;;4.35;1.23;;;12.60;99.90;;;;;;6205243;23;20017;-82
2021/10/05 06:08:18;;;;;;;;;;;12.60;99.90;;;;;;6221338;23;20013;-82
2021/10/05 06:10:47;;;;;;;8.65;1.33;;;12.60;99.90;;;;;;6145072;23;19916;-80
2021/10/05 06:13:16;;;;;;;8.85;2.20;;;12.60;99.90;;;;;;6169997;23;20021;-80
2021/10/05 06:15:47;;;;;;;9.35;2.47;;;12.50;99.90;;;;;;6194459;23;20017;-80
2021/10/05 06:18:17;;;;;;;9.47;2.00;;;11.40;99.90;;;;;;6198481;23;20027;-80
2021/10/05 06:20:46;;;;;;;5.20;1.88;;;12.50;99.90;;;;;;6181229;23;20009;-82
2021/10/05 06:23:16;;;;;;;11.82;2.55;;;12.50;99.90;;;;;;6182495;23;20415;-83
2021/10/05 06:25:46;;;;;;;7.63;1.80;;;13.10;99.90;;;;;;6208609;23;20208;-80
2021/10/05 06:31:10;;;;;;;12.02;2.35;;;12.30;99.90;;;;;;6146568;23;20021;-82
2021/10/05 06:33:40;;;;;;;13.32;3.00;;;12.30;99.90;;;;;;6199904;23;20434;-82
2021/10/05 06:36:09;;;;;;;5.85;1.95;;;12.30;99.90;;;;;;6144509;23;20204;-82
2021/10/05 06:38:37;;;;;;;7.55;2.38;;;12.20;99.90;;;;;;6166397;23;20024;-80
2021/10/05 06:41:10;;;;;;;11.63;1.98;;;12.10;99.90;;;;;;6154279;23;20017;-83
2021/10/05 06:43:43;;;;;;;8.07;2.10;;;12.10;99.90;;;;;;6120213;23;20021;-81
2021/10/05 06:46:42;;;;;;;7.20;2.00;;;12.10;99.90;;;;;;6159593;23;20028;-84
2021/10/05 06:49:11;;;;;;;8.57;2.63;;;12.00;99.90;;;;;;6120463;23;20027;-82
2021/10/05 06:51:41;;;;;;;11.68;1.70;;;12.00;99.90;;;;;;6167374;23;20708;-81
2021/10/05 06:54:10;;;;;;;8.27;2.08;;;12.00;99.90;;;;;;6202849;23;20013;-81
2021/10/05 06:56:42;;;;;;;8.55;2.20;;;12.00;99.90;;;;;;6173143;23;20027;-81
2021/10/05 06:59:12;;;;;;;7.30;2.10;;;12.00;99.90;;;;;;6168571;23;20329;-85
2021/10/05 07:01:41;;;;;;;8.82;2.13;;;11.90;99.90;;;;;;6142739;23;20024;-81
2021/10/05 07:04:12;;;;;;;7.72;1.80;;;11.90;99.90;;;;;;6205038;23;20016;-84
2021/10/05 07:06:42;;;;;;;8.30;1.88;;;11.80;99.90;;;;;;6180692;23;20021;-83
2021/10/05 07:09:15;;;;;;;6.22;2.22;;;11.90;99.90;;;;;;6205384;23;20027;-81
2021/10/05 07:11:46;;;;;;;11.65;2.35;;;11.70;99.90;;;;;;6192559;23;20032;-83
2021/10/05 07:14:26;;;;;;;19.25;3.03;;;11.90;99.90;;;;;;6193481;23;20035;-80
2021/10/05 07:16:57;;;;;;;4.70;2.53;;;12.00;99.90;;;;;;6193078;23;20024;-81
2021/10/05 07:19:28;;;;;;;6.85;2.25;;;11.40;99.90;;;;;;6194095;23;20017;-82
2021/10/05 07:22:14;;;;;;;11.75;2.40;;;11.90;99.90;;;;;;6193802;23;20028;-81
2021/10/05 07:24:58;;;;;;;8.55;2.75;;;11.90;99.90;;;;;;6168800;23;20393;-82
2021/10/05 07:31:31;;;;;;;5.47;2.28;;;11.90;99.90;;;;;;6197852;23;20024;-83
2021/10/05 07:34:14;;;;;;;5.70;1.88;;;11.80;99.90;;;;;;6173269;23;20025;-82
2021/10/05 07:36:54;;;;;;;7.18;1.65;;;11.80;99.90;;;;;;6197391;23;20017;-82
2021/10/05 07:39:26;;;;;;;9.70;2.42;;;11.90;99.90;;;;;;6146712;23;20024;-82
2021/10/05 07:45:37;;;;;;;7.28;1.88;;;12.00;99.90;;;;;;6171434;23;20017;-82
2021/10/05 07:48:06;;;;;;;7.70;1.77;;;12.00;99.90;;;;;;6181926;23;20172;-82
2021/10/05 07:50:35;;;;;;;7.80;1.92;;;12.00;99.90;;;;;;6170176;23;20024;-81
2021/10/05 07:53:07;;;;;;;10.65;3.20;;;12.00;99.90;;;;;;6146581;23;20023;-81
2021/10/05 07:55:35;;;;;;;14.70;3.95;;;12.20;99.90;;;;;;6194419;23;20025;-82
2021/10/05 07:58:04;;;;;;;11.27;2.47;;;12.10;99.90;;;;;;6169801;23;20025;-81
2021/10/05 08:00:39;;;;;;;8.80;2.83;;;12.10;99.90;;;;;;6207544;23;20021;-82
2021/10/05 08:03:34;;;;;;;13.73;2.10;;;12.20;99.90;;;;;;6208568;23;20016;-84
2021/10/05 08:06:06;;;;;;;5.55;2.30;;;11.60;99.90;;;;;;6149332;23;20017;-81
2021/10/05 08:08:40;;;;;;;7.68;2.08;;;12.20;99.90;;;;;;6170370;23;20029;-83
2021/10/05 08:11:19;;;;;;;11.93;1.88;;;12.20;99.90;;;;;;6147012;23;20190;-84
2021/10/05 08:13:56;;;;;;;5.57;1.88;;;12.40;99.90;;;;;;6206420;23;20028;-80
2021/10/05 08:16:32;;;;;;;7.30;1.50;;;12.30;99.90;;;;;;6171344;23;20025;-83
2021/10/05 08:19:27;;;;;;;8.40;3.08;;;12.40;99.90;;;;;;6209388;23;20023;-82
2021/10/05 08:22:09;;;;;;;5.47;1.30;;;11.70;99.90;;;;;;6173292;23;20128;-81
2021/10/05 08:24:51;;;;;;;5.57;1.92;;;12.40;99.90;;;;;;6196958;23;20013;-80
2021/10/05 08:27:19;;;;;;;7.55;1.60;;;12.40;99.90;;;;;;6172614;23;20027;-82
2021/10/05 08:29:54;;;;;;;7.63;1.45;;;12.50;99.90;;;;;;6170544;23;20017;-85
2021/10/05 08:32:32;;;;;;;8.75;1.95;;;12.70;99.90;;;;;;6195293;23;20027;-82
2021/10/05 08:35:01;;;;;;;5.03;1.83;;;12.60;99.90;;;;;;6171129;23;20023;-83
2021/10/05 08:37:46;;;;;;;14.50;3.58;;;12.60;99.90;;;;;;6230612;23;20025;-82
2021/10/05 08:40:48;;;;;;;9.05;3.05;;;12.80;99.90;;;;;;6077241;23;20043;-83
2021/10/05 08:43:25;;;;;;;2.72;1.67;;;12.80;99.90;;;;;;6056948;23;20022;-81
2021/10/05 08:46:02;;;;;;;7.28;1.88;;;12.90;99.90;;;;;;6029362;23;20023;-84
2021/10/05 08:48:42;;;;;;;7.75;1.88;;;12.90;99.90;;;;;;6078211;23;20042;-85
2021/10/05 08:51:17;;;;;;;6.03;1.55;;;12.90;99.90;;;;;;6031912;23;20031;-81
2021/10/05 08:54:17;;;;;;;6.43;1.63;;;13.00;99.90;;;;;;6057033;23;20029;-82
2021/10/05 08:56:52;;;;;;;6.90;1.80;;;13.00;99.90;;;;;;6029797;23;20018;-82
2021/10/05 08:59:39;;;;;;;6.53;1.45;;;13.00;99.90;;;;;;6027759;23;20066;-83
2021/10/05 09:02:18;;;;;;;15.68;3.20;;;13.10;99.90;;;;;;6057714;23;20023;-84
2021/10/05 09:05:03;;;;;;;7.70;2.65;;;13.00;99.90;;;;;;6097066;23;20048;-84
2021/10/05 09:07:52;;;;;;;3.83;1.67;;;13.00;99.90;;;;;;6118565;23;20022;-81
2021/10/05 09:10:35;;;;;;;12.88;3.88;;;13.00;99.90;;;;;;6124706;23;20018;-86
2021/10/05 09:13:11;;;;;;;8.18;1.85;;;13.00;99.90;;;;;;6140439;23;20032;-82
2021/10/05 09:15:46;;;;;;;4.78;1.48;;;13.00;99.90;;;;;;6117697;23;20025;-83
2021/10/05 09:19:03;;;;;;;10.60;1.77;;;13.00;99.90;;;;;;6123951;23;20035;-84
2021/10/05 09:21:45;;;;;;;10.38;1.70;;;13.10;99.90;;;;;;6114638;23;20024;-84
2021/10/05 09:24:32;;;;;;;5.30;1.30;;;12.50;99.90;;;;;;6176258;23;20061;-86
2021/10/05 09:27:06;;;;;;;6.35;1.60;;;13.20;99.90;;;;;;6116044;23;20023;-83
2021/10/05 09:29:45;;;;;;;3.08;1.98;;;13.10;99.90;;;;;;6178153;23;20445;-82
2021/10/05 09:32:45;;;;;;;;;;;;;;;;;;;;;
2021/10/05 09:35:46;;;;;;;8.35;3.58;;;13.20;99.90;;;;;;6166352;23;20035;-82
2021/10/05 09:38:46;;;;;;;5.32;1.35;;;13.20;99.90;;;;;;6119285;23;20025;-82
2021/10/05 09:41:58;;;;;;;2.15;1.52;;;13.30;99.90;;;;;;6159773;23;20029;-85
2021/10/05 09:45:00;;;;;;;4.70;2.15;;;12.10;99.90;;;;;;6156770;23;20021;-83
2021/10/05 09:47:33;;;;;;;7.07;1.50;;;13.50;99.90;;;;;;6142918;23;20013;-83
2021/10/05 09:50:17;;;;;;;5.28;1.58;;;13.40;99.90;;;;;;6167243;23;20021;-83
2021/10/05 09:52:53;;;;;;;2.58;2.25;;;13.40;99.90;;;;;;6141728;23;20021;-83
2021/10/05 09:55:24;;;;;;;3.30;1.52;;;13.40;99.90;;;;;;6142173;23;20026;-83
2021/10/05 09:57:54;;;;;;;3.47;1.30;;;14.10;99.90;;;;;;6155561;23;20021;-82
2021/10/05 10:00:37;;;;;;;1.80;1.10;;;13.40;99.90;;;;;;6145651;23;20025;-81
2021/10/05 10:03:39;;;;;;;;;;;13.40;99.90;;;;;;6183188;23;20016;-83
2021/10/05 10:06:08;;;;;;;4.15;1.65;;;12.10;99.90;;;;;;6122835;23;19916;-81
2021/10/05 10:08:53;;;;;;;5.00;1.50;;;13.30;99.90;;;;;;6149598;23;20021;-85
2021/10/05 10:11:25;;;;;;;;;;;13.30;99.90;;;;;;6208760;23;20021;-84
2021/10/05 10:14:00;;;;;;;8.65;2.05;;;13.30;99.90;;;;;;6172049;23;19916;-80
2021/10/05 10:16:36;;;;;;;5.93;1.30;;;13.40;99.90;;;;;;6172517;23;20017;-83
2021/10/05 10:22:27;;;;;;;1.77;1.08;;;13.50;99.90;;;;;;6175642;23;19916;-84
2021/10/05 10:25:10;;;;;;;2.92;1.80;;;13.50;99.90;;;;;;6153121;23;20021;-83
2021/10/05 10:28:15;;;;;;;2.60;1.35;;;13.50;99.90;;;;;;6210232;23;20019;-82
2021/10/05 10:31:06;;;;;;;5.45;1.50;;;13.60;99.90;;;;;;6210450;23;20033;-83
2021/10/05 10:33:49;;;;;;;2.05;1.10;;;13.70;99.90;;;;;;6145630;23;20273;-79
2021/10/05 10:36:54;;;;;;;1.55;1.08;;;13.60;99.90;;;;;;6148666;23;20029;-85
2021/10/05 10:39:25;;;;;;;3.75;1.00;;;13.60;99.90;;;;;;6143763;23;20020;-82
2021/10/05 10:42:04;;;;;;;5.22;1.77;;;13.60;99.90;;;;;;6182187;23;20032;-84
2021/10/05 10:44:42;;;;;;;5.38;1.50;;;13.60;99.90;;;;;;6148476;23;20021;-85
2021/10/05 10:47:40;;;;;;;7.10;1.67;;;13.60;99.90;;;;;;6170181;23;20031;-81
2021/10/05 10:50:38;;;;;;;2.47;1.02;;;13.70;99.90;;;;;;6174668;23;20021;-83
2021/10/05 10:53:20;;;;;;;5.03;1.63;;;13.70;99.90;;;;;;6171374;23;20024;-83
2021/10/05 10:55:54;;;;;;;6.10;1.10;;;13.70;99.90;;;;;;6142788;23;20031;-82
2021/10/05 10:58:31;;;;;;;;;;;13.70;99.90;;;;;;6144264;23;20043;-85
2021/10/05 11:01:15;;;;;;;1.13;1.02;;;13.70;99.90;;;;;;6204948;23;19916;-83
2021/10/05 11:03:47;;;;;;;3.63;1.40;;;13.80;99.90;;;;;;6179669;23;20027;-83
2021/10/05 11:06:35;;;;;;;2.45;1.17;;;13.70;99.90;;;;;;6142469;23;20021;-85
2021/10/05 11:09:36;;;;;;;13.93;2.22;;;13.60;99.90;;;;;;6145116;23;20021;-83
2021/10/05 11:12:13;;;;;;;1.52;1.10;;;13.70;99.90;;;;;;6195950;23;20013;-84
2021/10/05 11:14:44;;;;;;;7.57;1.67;;;13.60;99.90;;;;;;6197800;23;20020;-83
2021/10/05 11:17:12;;;;;;;2.23;1.40;;;13.50;99.90;;;;;;6205344;23;20024;-83
2021/10/05 11:19:41;;;;;;;11.85;1.67;;;13.50;99.90;;;;;;6179520;23;20027;-83
2021/10/05 11:22:15;;;;;;;4.05;1.20;;;13.50;99.90;;;;;;6156299;23;20027;-80
2021/10/05 11:24:57;;;;;;;2.38;1.13;;;13.50;99.90;;;;;;6180756;23;20021;-83
2021/10/05 11:27:26;;;;;;;3.53;1.10;;;13.60;99.90;;;;;;6144833;23;20023;-81
2021/10/05 11:30:02;;;;;;;6.70;1.15;;;13.60;99.90;;;;;;6168161;23;20025;-80
2021/10/05 11:32:32;;;;;;;6.68;1.70;;;13.70;99.90;;;;;;6145509;23;20035;-80
2021/10/05 11:35:01;;;;;;;12.05;2.17;;;13.80;99.90;;;;;;6169124;23;20021;-81
2021/10/05 11:37:30;;;;;;;1.73;1.20;;;12.70;99.90;;;;;;6179593;23;20017;-81
2021/10/05 11:40:01;;;;;;;2.50;1.17;;;13.90;99.90;;;;;;6142838;23;20013;-82
2021/10/05 11:42:33;;;;;;;2.70;0.90;;;14.00;99.90;;;;;;6142823;23;20029;-81
2021/10/05 11:45:04;;;;;;;10.02;1.20;;;13.90;99.90;;;;;;6178413;23;20009;-81
2021/10/05 11:47:33;;;;;;;4.13;1.20;;;14.00;99.90;;;;;;6204477;23;20021;-80
2021/10/05 11:50:05;;;;;;;3.45;0.98;;;14.00;99.90;;;;;;6194825;23;20021;-82
2021/10/05 11:52:42;;;;;;;2.10;1.30;;;14.00;99.90;;;;;;6148258;23;20027;-84
2021/10/05 11:55:12;;;;;;;1.80;1.05;;;14.10;99.90;;;;;;6118042;23;20031;-81
2021/10/05 11:57:43;;;;;;;5.07;1.23;;;14.30;99.90;;;;;;6136858;23;20021;-81
2021/10/05 12:00:14;;;;;;;1.85;1.10;;;14.10;99.90;;;;;;6138736;23;20081;-82
2021/10/05 12:02:45;;;;;;;1.83;1.00;;;14.20;99.90;;;;;;6174203;23;20022;-81
2021/10/05 12:05:24;;;;;;;1.27;0.90;;;14.20;99.90;;;;;;6115064;23;20479;-82
2021/10/05 12:08:02;;;;;;;1.83;1.63;;;14.10;99.90;;;;;;6138349;23;20025;-81
2021/10/05 12:10:32;;;;;;;1.25;1.13;;;14.00;99.90;;;;;;6172375;23;20021;-84
2021/10/05 12:13:02;;;;;;;2.30;1.00;;;14.10;99.90;;;;;;6163381;23;20018;-81
2021/10/05 12:15:32;;;;;;;2.17;1.05;;;14.00;99.90;;;;;;6166048;23;20020;-80
2021/10/05 12:18:04;;;;;;;3.40;1.52;;;13.30;99.90;;;;;;6137993;23;20017;-81
2021/10/05 12:21:06;;;;;;;1.80;1.00;;;14.20;99.90;;;;;;6167030;23;20021;-81
2021/10/05 12:23:36;;;;;;;3.28;0.95;;;14.30;99.90;;;;;;6165084;23;20028;-80
2021/10/05 12:26:12;;;;;;;4.28;1.20;;;14.30;99.90;;;;;;6120974;23;20032;-82
2021/10/05 12:29:10;;;;;;;1.50;1.00;;;15.50;99.90;;;;;;6169022;23;20025;-84
2021/10/05 12:31:55;;;;;;;1.70;1.17;;;14.50;99.90;;;;;;6143472;23;20002;-83
2021/10/05 12:34:40;;;;;;;1.35;0.93;;;14.60;99.90;;;;;;6169299;23;20028;-85
2021/10/05 12:37:13;;;;;;;3.65;1.30;;;14.70;99.90;;;;;;6153634;23;20013;-81
2021/10/05 12:40:24;;;;;;;2.15;0.90;;;14.90;99.90;;;;;;6146105;23;20025;-83
2021/10/05 12:42:54;;;;;;;2.22;0.95;;;15.00;99.90;;;;;;6143389;23;20020;-80
2021/10/05 12:46:13;;;;;;;0.85;0.85;;;15.10;99.90;;;;;;6085760;23;20021;-84
2021/10/05 12:49:14;;;;;;;3.60;1.02;;;15.10;99.90;;;;;;6147463;23;20036;-87
2021/10/05 12:52:12;;;;;;;3.15;0.90;;;15.10;99.90;;;;;;6145897;23;20027;-85
2021/10/05 12:54:43;;;;;;;3.15;0.90;;;15.10;99.90;;;;;;6167723;23;20022;-85
2021/10/05 13:01:35;;;;;;;1.73;0.88;;;15.10;99.90;;;;;;6186692;23;20021;-88
2021/10/05 13:04:26;;;;;;;3.15;1.23;;;15.00;99.90;;;;;;6173626;23;20020;-85
2021/10/05 13:07:19;;;;;;;2.33;1.00;;;15.10;99.90;;;;;;6172983;23;20021;-84
2021/10/05 13:10:10;;;;;;;1.45;1.25;;;15.10;99.90;;;;;;6173412;23;20029;-84
2021/10/05 13:12:50;;;;;;;2.78;1.40;;;15.20;99.90;;;;;;6150905;23;20027;-81
2021/10/05 13:15:55;;;;;;;1.75;0.90;;;15.10;99.90;;;;;;6127749;23;20031;-86
2021/10/05 13:18:39;;;;;;;4.93;1.10;;;15.20;99.90;;;;;;6137402;23;20031;-83
2021/10/05 13:21:38;;;;;;;1.25;0.82;;;15.10;99.90;;;;;;6200925;23;20021;-81
2021/10/05 13:24:28;;;;;;;6.55;1.27;;;15.10;99.90;;;;;;6169793;23;20025;-84
2021/10/05 13:27:24;;;;;;;;;;;;;;;;;;;;;
2021/10/05 13:29:57;;;;;;;6.90;1.30;;;15.10;99.90;;;;;;6146359;23;20028;-82
2021/10/05 13:32:29;;;;;;;1.40;0.90;;;15.00;99.90;;;;;;6182392;23;20365;-83
2021/10/05 13:35:01;;;;;;;1.60;1.00;;;15.10;99.90;;;;;;6181435;23;20017;-84
2021/10/05 13:37:30;;;;;;;0.98;0.88;;;15.10;99.90;;;;;;6146568;23;20028;-85
2021/10/05 13:40:42;;;;;;;2.63;1.13;;;15.10;99.90;;;;;;6147224;23;20031;-86
2021/10/05 13:43:33;;;;;;;1.83;0.88;;;15.20;99.90;;;;;;6183789;23;20032;-83
2021/10/05 13:46:01;;;;;;;15.32;2.05;;;15.20;99.90;;;;;;6206358;23;20020;-84
2021/10/05 13:48:32;;;;;;;2.17;0.90;;;14.10;99.90;;;;;;6158377;23;20023;-82
2021/10/05 13:51:16;;;;;;;3.80;0.80;;;15.40;99.60;;;;;;6123654;23;20039;-83
2021/10/05 13:54:07;;;;;;;2.63;1.02;;;15.50;99.90;;;;;;6151404;23;20402;-83
2021/10/05 13:56:38;;;;;;;1.70;0.80;;;15.50;99.80;;;;;;6124606;23;20021;-82
2021/10/05 13:59:18;;;;;;;3.28;1.20;;;15.60;99.60;;;;;;6173522;23;20025;-86
2021/10/05 14:01:57;;;;;;;;;;;;;;;;;;;;;
2021/10/05 14:04:48;;;;;;;3.20;1.13;;;15.50;99.60;;;;;;6146605;23;20029;-82
2021/10/05 14:07:39;;;;;;;2.33;1.40;;;15.30;99.80;;;;;;6172892;23;20017;-83